createdAt,value
2018-06-24T06:02:47.435Z,91.20
2018-06-24T06:05:16.438Z,90.70
2018-06-24T06:07:44.622Z,90.80
2018-06-24T06:10:16.221Z,90.00
2018-06-24T06:12:44.375Z,90.80
2018-06-24T06:15:16.456Z,91.00
2018-06-24T06:17:45.776Z,88.50
2018-06-24T06:20:14.042Z,84.10
2018-06-24T06:22:42.278Z,83.70
2018-06-24T06:25:10.505Z,83.70
2018-06-24T06:27:38.742Z,82.80
2018-06-24T06:30:08.186Z,80.80
2018-06-24T06:32:36.405Z,79.30
2018-06-24T06:35:05.112Z,80.60
2018-06-24T06:37:33.313Z,79.30
2018-06-24T06:40:01.577Z,76.90
2018-06-24T06:42:30.426Z,75.90
2018-06-24T06:44:58.783Z,75.90
2018-06-24T06:47:26.954Z,73.40
2018-06-24T06:49:55.221Z,74.50
2018-06-24T06:52:23.471Z,72.40
2018-06-24T06:54:51.636Z,70.20
2018-06-24T06:57:19.822Z,67.30
2018-06-24T06:59:53.868Z,71.40
2018-06-24T07:02:22.097Z,71.50
2018-06-24T07:04:50.295Z,72.20
2018-06-24T07:07:18.576Z,73.00
2018-06-24T07:09:47.958Z,75.50
2018-06-24T07:12:16.234Z,75.30
2018-06-24T07:14:45.485Z,75.60
2018-06-24T07:17:13.729Z,74.00
2018-06-24T07:19:41.933Z,73.60
2018-06-24T07:22:10.242Z,72.00
2018-06-24T07:24:38.475Z,71.60
2018-06-24T07:27:06.753Z,72.60
2018-06-24T07:29:35.052Z,74.30
2018-06-24T07:32:03.321Z,77.10
2018-06-24T07:34:37.825Z,77.60
2018-06-24T07:37:06.113Z,76.70
2018-06-24T07:39:34.345Z,78.80
2018-06-24T07:42:02.606Z,79.70
2018-06-24T07:44:30.831Z,80.40
2018-06-24T07:47:00.135Z,77.40
2018-06-24T07:49:28.332Z,77.10
2018-06-24T07:52:00.153Z,77.50
2018-06-24T07:54:28.361Z,78.50
2018-06-24T07:56:57.860Z,79.90
2018-06-24T07:59:26.064Z,80.80
2018-06-24T08:01:54.441Z,79.70
2018-06-24T08:04:22.643Z,78.70
2018-06-24T08:06:51.829Z,80.10
2018-06-24T08:09:20.055Z,78.20
2018-06-24T08:11:48.332Z,79.80
2018-06-24T08:14:16.534Z,80.80
2018-06-24T08:16:46.810Z,80.10
2018-06-24T08:19:15.038Z,79.50
2018-06-24T08:21:43.302Z,79.10
2018-06-24T08:24:11.553Z,79.70
2018-06-24T08:26:39.791Z,81.80
2018-06-24T08:29:08.013Z,81.00
2018-06-24T08:31:36.275Z,80.60
2018-06-24T08:34:05.761Z,79.20
2018-06-24T08:36:34.075Z,79.20
2018-06-24T08:39:03.171Z,77.20
2018-06-24T08:41:31.353Z,76.70
2018-06-24T08:44:01.706Z,79.10
2018-06-24T08:46:45.618Z,79.50
2018-06-24T08:49:13.942Z,78.70
2018-06-24T08:51:53.731Z,79.50
2018-06-24T08:54:22.079Z,78.80
2018-06-24T08:56:50.262Z,79.10
2018-06-24T08:59:18.493Z,78.70
2018-06-24T09:01:46.786Z,78.90
2018-06-24T09:04:15.078Z,78.80
2018-06-24T09:06:43.919Z,76.90
2018-06-24T09:09:19.215Z,76.40
2018-06-24T09:11:47.417Z,76.60
2018-06-24T09:14:15.667Z,77.40
2018-06-24T09:16:45.351Z,75.90
2018-06-24T09:19:14.609Z,74.00
2018-06-24T09:21:59.905Z,73.00
2018-06-24T09:24:28.146Z,70.10
2018-06-24T09:26:56.417Z,71.50
2018-06-24T09:29:25.128Z,71.90
2018-06-24T09:31:53.548Z,68.40
2018-06-24T09:34:21.823Z,65.70
2018-06-24T09:36:50.058Z,65.70
2018-06-24T09:39:18.355Z,65.80
2018-06-24T09:41:46.593Z,65.30
2018-06-24T09:44:14.902Z,66.20
2018-06-24T09:46:43.179Z,66.50
2018-06-24T09:49:11.478Z,65.70
2018-06-24T09:51:39.785Z,64.90
2018-06-24T09:54:22.193Z,65.20
2018-06-24T09:56:50.430Z,64.90
2018-06-24T09:59:18.662Z,65.20
2018-06-24T10:01:47.079Z,66.00
2018-06-24T10:04:15.331Z,65.00
2018-06-24T10:06:43.575Z,64.50
2018-06-24T10:09:12.230Z,63.50
2018-06-24T10:11:40.477Z,62.90
2018-06-24T10:14:08.711Z,64.00
2018-06-24T10:16:37.023Z,63.90
2018-06-24T10:19:05.294Z,64.10
2018-06-24T10:21:33.514Z,65.20
2018-06-24T10:24:02.621Z,65.40
2018-06-24T10:26:30.953Z,65.10
2018-06-24T10:29:00.224Z,65.60
2018-06-24T10:31:28.479Z,65.10
2018-06-24T10:33:56.685Z,64.20
2018-06-24T10:36:24.910Z,63.60
2018-06-24T10:38:53.180Z,61.70
2018-06-24T10:41:21.384Z,61.80
2018-06-24T10:43:49.725Z,63.50
2018-06-24T10:46:17.938Z,64.70
2018-06-24T10:48:46.137Z,64.80
2018-06-24T10:51:14.407Z,65.60
2018-06-24T10:53:42.650Z,66.70
2018-06-24T10:56:10.910Z,65.90
2018-06-24T10:58:39.165Z,64.90
2018-06-24T11:01:07.439Z,65.80
2018-06-24T11:03:35.649Z,65.40
2018-06-24T11:06:04.060Z,65.70
2018-06-24T11:08:32.277Z,65.00
2018-06-24T11:11:00.506Z,64.30
2018-06-24T11:13:28.731Z,64.20
2018-06-24T11:15:57.378Z,63.90
2018-06-24T11:18:25.647Z,63.20
2018-06-24T11:20:54.954Z,64.20
2018-06-24T11:23:23.298Z,64.20
2018-06-24T11:25:51.569Z,65.70
2018-06-24T11:28:19.839Z,65.80
2018-06-24T11:30:48.162Z,63.20
2018-06-24T11:33:20.918Z,63.30
2018-06-24T11:35:50.142Z,64.30
2018-06-24T11:38:18.429Z,64.60
2018-06-24T11:40:46.721Z,63.80
2018-06-24T11:43:14.938Z,63.50
2018-06-24T11:45:43.190Z,63.70
2018-06-24T11:48:12.481Z,64.70
2018-06-24T11:50:40.792Z,63.30
2018-06-24T11:53:09.027Z,62.70
2018-06-24T11:58:05.479Z,61.60
2018-06-24T12:03:02.049Z,63.10
2018-06-24T12:05:32.363Z,63.30
2018-06-24T12:08:03.785Z,63.40
2018-06-24T12:10:32.075Z,63.40
2018-06-24T12:13:00.669Z,64.30
2018-06-24T12:15:28.886Z,64.40
2018-06-24T12:17:57.102Z,65.50
2018-06-24T12:20:25.318Z,64.70
2018-06-24T12:22:53.533Z,64.40
2018-06-24T12:25:21.821Z,63.70
2018-06-24T12:27:49.998Z,64.80
2018-06-24T12:30:19.239Z,62.60
2018-06-24T12:32:47.473Z,65.10
2018-06-24T12:35:15.739Z,63.80
2018-06-24T12:37:43.978Z,62.90
2018-06-24T12:40:12.218Z,61.90
2018-06-24T12:42:40.434Z,62.80
2018-06-24T12:45:08.656Z,64.60
2018-06-24T12:47:36.876Z,63.70
2018-06-24T12:50:05.089Z,61.00
2018-06-24T12:52:33.378Z,62.50
2018-06-24T12:55:01.607Z,61.80
2018-06-24T12:57:31.822Z,60.10
2018-06-24T13:00:00.305Z,59.00
2018-06-24T13:02:28.326Z,57.40
2018-06-24T13:05:01.241Z,58.40
2018-06-24T13:12:25.401Z,59.80
2018-06-24T13:14:53.618Z,59.40
2018-06-24T13:17:21.830Z,58.70
2018-06-24T13:19:50.743Z,57.90
2018-06-24T13:22:20.861Z,58.00
2018-06-24T13:24:50.226Z,57.50
2018-06-24T13:27:18.539Z,57.10
2018-06-24T13:29:50.442Z,57.60
2018-06-24T13:32:18.633Z,57.50
2018-06-24T13:34:46.838Z,56.60
2018-06-24T13:37:15.049Z,56.70
2018-06-24T13:39:43.306Z,57.20
2018-06-24T13:42:11.591Z,57.00
2018-06-24T13:44:39.946Z,57.50
2018-06-24T13:47:08.181Z,56.20
2018-06-24T13:49:36.413Z,57.50
2018-06-24T13:52:04.633Z,57.70
2018-06-24T13:54:32.873Z,58.40
2018-06-24T13:57:02.201Z,57.40
2018-06-24T13:59:30.506Z,57.10
2018-06-24T14:01:58.762Z,56.40
2018-06-24T14:04:27.013Z,56.70
2018-06-24T14:06:55.246Z,58.70
2018-06-24T14:09:23.434Z,58.90
2018-06-24T14:11:51.691Z,59.50
2018-06-24T14:14:19.907Z,60.10
2018-06-24T14:16:48.165Z,60.00
2018-06-24T14:19:25.505Z,59.80
2018-06-24T14:21:53.727Z,60.20
2018-06-24T14:24:21.978Z,61.00
2018-06-24T14:26:50.229Z,60.70
2018-06-24T14:29:18.421Z,60.00
2018-06-24T14:31:46.694Z,60.90
2018-06-24T14:34:14.911Z,61.00
2018-06-24T14:36:47.459Z,60.10
2018-06-24T14:39:16.697Z,59.10
2018-06-24T14:41:45.010Z,58.60
2018-06-24T14:44:13.249Z,59.50
2018-06-24T14:46:41.460Z,59.30
2018-06-24T14:49:09.658Z,59.60
2018-06-24T14:51:37.907Z,60.30
2018-06-24T14:54:06.121Z,61.70
2018-06-24T14:56:34.374Z,62.70
2018-06-24T14:59:02.609Z,62.30
2018-06-24T15:01:30.914Z,62.40
2018-06-24T15:03:59.179Z,61.60
2018-06-24T15:06:27.422Z,61.80
2018-06-24T15:08:55.612Z,61.40
2018-06-24T15:11:23.939Z,61.10
2018-06-24T15:13:52.092Z,61.80
2018-06-24T15:16:20.329Z,60.50
2018-06-24T15:18:48.621Z,61.40
2018-06-24T15:21:20.774Z,62.10
2018-06-24T15:23:49.046Z,61.50
2018-06-24T15:26:17.305Z,61.40
2018-06-24T15:28:45.545Z,61.00
2018-06-24T15:31:13.861Z,61.10
2018-06-24T15:33:42.089Z,60.80
2018-06-24T15:38:38.319Z,60.90
2018-06-24T15:41:08.529Z,61.00
2018-06-24T15:43:36.793Z,61.80
2018-06-24T15:46:05.047Z,61.60
2018-06-24T15:48:54.744Z,61.90
2018-06-24T15:51:23.092Z,62.20
2018-06-24T15:53:51.401Z,63.50
2018-06-24T15:56:19.644Z,62.60
2018-06-24T15:58:52.038Z,62.60
2018-06-24T16:01:21.363Z,63.00
2018-06-24T16:03:49.557Z,62.60
2018-06-24T16:06:17.784Z,63.70
2018-06-24T16:08:46.056Z,63.80
2018-06-24T16:11:16.393Z,63.80
2018-06-24T16:13:44.592Z,63.10
2018-06-24T16:16:12.852Z,63.00
2018-06-24T16:18:41.113Z,63.70
2018-06-24T16:21:09.497Z,64.20
2018-06-24T16:26:06.677Z,64.20
2018-06-24T16:28:34.921Z,63.60
2018-06-24T16:31:03.245Z,63.70
2018-06-24T16:33:31.593Z,63.60
2018-06-24T16:35:59.870Z,64.30
2018-06-24T16:38:28.177Z,64.60
2018-06-24T16:40:56.398Z,65.40
2018-06-24T16:43:24.685Z,65.00
2018-06-24T16:45:52.867Z,65.30
2018-06-24T16:48:21.362Z,63.50
2018-06-24T16:50:49.660Z,63.10
2018-06-24T16:53:17.941Z,63.30
2018-06-24T16:55:46.169Z,64.50
2018-06-24T16:58:14.547Z,64.00
2018-06-24T17:00:43.793Z,64.00
2018-06-24T17:03:12.029Z,64.70
2018-06-24T17:05:40.225Z,64.70
2018-06-24T17:08:08.909Z,63.30
2018-06-24T17:10:37.122Z,63.90
2018-06-24T17:13:06.342Z,63.90
2018-06-24T17:15:34.574Z,64.40
2018-06-24T17:18:02.777Z,65.40
2018-06-24T17:20:31.009Z,65.50
2018-06-24T17:22:59.284Z,66.50
2018-06-24T17:25:27.482Z,66.80
2018-06-24T17:28:01.198Z,67.00
2018-06-24T17:30:29.373Z,67.10
2018-06-24T17:32:57.670Z,66.70
2018-06-24T17:35:25.936Z,67.60
2018-06-24T17:37:54.198Z,68.00
2018-06-24T17:40:22.399Z,68.40
2018-06-24T17:42:50.710Z,69.00
2018-06-24T17:45:20.005Z,69.10
2018-06-24T17:47:50.279Z,69.00
2018-06-24T17:52:46.521Z,69.30
2018-06-24T17:55:14.838Z,69.40
2018-06-24T17:57:43.050Z,69.60
2018-06-24T18:00:11.308Z,69.40
2018-06-24T18:02:39.567Z,69.30
2018-06-24T18:05:07.777Z,69.30
2018-06-24T18:07:35.988Z,69.70
2018-06-24T18:10:04.366Z,68.80
2018-06-24T18:12:32.605Z,69.40
2018-06-24T18:15:00.859Z,69.60
2018-06-24T18:17:29.089Z,69.60
2018-06-24T18:19:57.313Z,69.70
2018-06-24T18:22:25.558Z,69.90
2018-06-24T18:24:53.798Z,70.20
2018-06-24T18:27:21.981Z,70.40
2018-06-24T18:29:50.195Z,70.40
2018-06-24T18:32:18.460Z,70.90
2018-06-24T18:34:46.668Z,71.20
2018-06-24T18:37:14.889Z,71.50
2018-06-24T18:39:43.225Z,71.60
2018-06-24T18:42:11.357Z,72.10
2018-06-24T18:44:39.702Z,72.40
2018-06-24T18:47:07.955Z,72.40
2018-06-24T18:49:36.150Z,72.70
2018-06-24T18:52:04.366Z,72.90
2018-06-24T18:54:32.670Z,73.40
2018-06-24T18:57:01.987Z,73.50
2018-06-24T18:59:30.197Z,73.80
2018-06-24T19:01:58.419Z,73.80
2018-06-24T19:04:26.597Z,74.30
2018-06-24T19:06:54.844Z,75.30
2018-06-24T19:09:23.069Z,75.00
2018-06-24T19:11:51.308Z,74.90
2018-06-24T19:14:19.499Z,75.10
2018-06-24T19:16:47.684Z,75.00
2018-06-24T19:19:15.948Z,75.30
2018-06-24T19:21:44.279Z,75.70
2018-06-24T19:24:12.535Z,75.70
2018-06-24T19:26:40.745Z,75.80
2018-06-24T19:29:08.973Z,76.00
2018-06-24T19:31:37.181Z,76.00
2018-06-24T19:34:06.232Z,76.50
2018-06-24T19:36:34.494Z,76.30
2018-06-24T19:39:02.766Z,76.50
2018-06-24T19:41:31.072Z,76.80
2018-06-24T19:43:59.341Z,76.70
2018-06-24T19:46:28.629Z,76.80
2018-06-24T19:48:56.817Z,77.20
2018-06-24T19:51:25.030Z,77.50
2018-06-24T19:53:53.287Z,77.60
2018-06-24T19:56:21.723Z,77.80
2018-06-24T19:58:49.944Z,77.80
2018-06-24T20:01:18.213Z,77.80
2018-06-24T20:03:46.954Z,78.20
2018-06-24T20:06:16.235Z,78.70
2018-06-24T20:08:44.489Z,78.80
2018-06-24T20:11:12.858Z,79.10
2018-06-24T20:13:41.117Z,79.20
2018-06-24T20:16:09.406Z,79.70
2018-06-24T20:18:39.912Z,80.30
2018-06-24T20:21:08.222Z,80.20
2018-06-24T20:23:36.455Z,80.60
2018-06-24T20:26:04.712Z,80.60
2018-06-24T20:28:33.013Z,80.80
2018-06-24T20:31:01.288Z,80.90
2018-06-24T20:33:34.051Z,80.90
2018-06-24T20:36:04.222Z,80.40
2018-06-24T20:38:33.734Z,80.40
2018-06-24T20:41:02.033Z,80.40
2018-06-24T20:43:30.374Z,80.20
2018-06-24T20:45:58.850Z,80.60
2018-06-24T20:48:27.074Z,80.50
2018-06-24T20:50:57.351Z,80.60
2018-06-24T20:53:25.592Z,80.80
2018-06-24T20:55:53.859Z,80.90
2018-06-24T20:58:22.297Z,80.60
2018-06-24T21:00:50.569Z,81.00
2018-06-24T21:03:18.816Z,81.30
2018-06-24T21:05:47.050Z,81.60
2018-06-24T21:08:23.842Z,82.00
2018-06-24T21:10:52.098Z,81.90
2018-06-24T21:15:48.346Z,82.50
2018-06-24T21:18:16.669Z,82.80
2018-06-24T21:20:44.889Z,82.80
2018-06-24T21:23:13.265Z,83.00
2018-06-24T21:25:41.489Z,83.20
2018-06-24T21:28:09.714Z,83.10
2018-06-24T21:30:38.096Z,83.40
2018-06-24T21:33:06.401Z,83.40
2018-06-24T21:35:34.650Z,83.70
2018-06-24T21:38:03.790Z,84.00
2018-06-24T21:40:32.134Z,84.30
2018-06-24T21:45:28.358Z,84.90
2018-06-24T21:47:56.640Z,84.60
2018-06-24T21:50:24.911Z,85.00
2018-06-24T21:52:53.144Z,84.60
2018-06-24T21:55:21.568Z,84.70
2018-06-24T21:57:49.801Z,85.00
2018-06-24T22:00:18.325Z,84.70
2018-06-24T22:02:46.549Z,85.00
2018-06-24T22:05:14.738Z,85.10
2018-06-24T22:07:42.950Z,85.20
2018-06-24T22:12:39.910Z,84.80
2018-06-24T22:15:08.799Z,85.40
2018-06-24T22:17:36.990Z,85.10
2018-06-24T22:20:05.201Z,84.00
2018-06-24T22:22:33.531Z,84.00
2018-06-24T22:25:01.746Z,85.10
2018-06-24T22:27:30.180Z,84.80
2018-06-24T22:29:58.441Z,85.50
2018-06-24T22:32:26.644Z,85.70
2018-06-24T22:34:54.837Z,85.40
2018-06-24T22:37:23.125Z,85.40
2018-06-24T22:39:51.664Z,84.30
2018-06-24T22:42:19.919Z,85.30
2018-06-24T22:44:48.235Z,85.60
2018-06-24T22:47:16.441Z,86.10
2018-06-24T22:49:44.657Z,85.90
2018-06-24T22:52:12.844Z,86.00
2018-06-24T22:54:41.041Z,85.80
2018-06-24T22:57:09.274Z,86.00
2018-06-24T22:59:48.776Z,86.10
